Wednesday, August 15, 2018, 3:44 AM CDT
Back to Local

KDPA, Chicago/west Ch Dupage

Location: West Chicago, IL, United States Lat: 41.9
Local Time: 3:44 AM CDT ( 8:44 GMT) Lon: -88.25
Time Zone: US/Central Elev: 757 ft

Show me the last for .
Show Decoded

2018-08-15 02:52 METAR KDPA 150752Z 17003KT 6SM BR CLR 21/19 A2994 RMK AO2 SLP133 T02110189 =
2018-08-15 01:52 METAR KDPA 150652Z 00000KT 6SM HZ CLR 22/19 A2993 RMK AO2 SLP130 T02170189 =
2018-08-15 00:52 METAR KDPA 150552Z 18004KT 7SM CLR 22/19 A2994 RMK AO2 SLP131 T02220189 10278
                 20211 403110178 57008 =
2018-08-14 23:52 METAR KDPA 150452Z 17005KT 6SM HZ CLR 22/19 A2995 RMK AO2 SLP134 T02220194 =
2018-08-14 22:52 METAR KDPA 150352Z 18004KT 5SM BR CLR 22/20 A2996 RMK AO2 SLP138 T02170200 =
2018-08-14 21:52 METAR KDPA 150252Z 00000KT 6SM HZ CLR 23/20 A2996 RMK AO2 SLP141 T02330200 53006
                 =
2018-08-14 20:52 METAR KDPA 150152Z 00000KT 6SM HZ CLR 24/20 A2995 RMK AO2 SLP137 T02390200 =
2018-08-14 19:52 METAR KDPA 150052Z 28003KT 5SM HZ CLR 27/19 A2994 RMK AO2 SLP134 T02670189 =
2018-08-14 18:52 METAR KDPA 142352Z 00000KT 5SM HZ CLR 28/19 A2995 RMK AO2 SLP135 T02830194 10311
                 20283 56006 =
2018-08-14 17:52 METAR KDPA 142252Z 29003KT 5SM HZ CLR 28/19 A2995 RMK AO2 SLP137 T02830194 =
2018-08-14 16:52 METAR KDPA 142152Z 29006KT 6SM HZ CLR 29/18 A2996 RMK AO2 SLP139 T02890178 =
2018-08-14 15:52 METAR KDPA 142052Z 25004KT 6SM HZ CLR 31/18 A2996 RMK AO2 SLP141 T03060183 56012
                 =
2018-08-14 14:52 METAR KDPA 141952Z 22008KT 5SM HZ FEW050 SCT065 31/19 A2998 RMK AO2 SLP145
                 T03060189 =
2018-08-14 13:52 METAR KDPA 141852Z 25007KT 6SM HZ FEW046 31/19 A2999 RMK AO2 SLP149 T03060194 =
2018-08-14 12:52 METAR KDPA 141752Z 22007KT 5SM HZ SCT043 29/19 A3000 RMK AO2 SLP153 T02940194
                 10300 20194 58003 =
2018-08-14 11:52 METAR KDPA 141652Z 25007KT 5SM HZ FEW039 29/20 A3000 RMK AO2 SLP153 T02940200 =
2018-08-14 10:52 METAR KDPA 141552Z 22007KT 5SM HZ CLR 28/20 A3001 RMK AO2 SLP157 T02830200 =
2018-08-14 09:52 METAR KDPA 141452Z 24004KT 5SM HZ CLR 27/19 A3001 RMK AO2 SLP156 T02670189 50002
                 =
2018-08-14 08:52 METAR KDPA 141352Z 22005KT 5SM HZ CLR 25/19 A3001 RMK AO2 SLP157 T02500194 =
2018-08-14 07:52 METAR KDPA 141252Z 00000KT 7SM CLR 22/19 A3001 RMK AO2 SLP156 T02170189 =
2018-08-14 06:52 METAR KDPA 141152Z 18003KT 5SM BR CLR 19/18 A3000 RMK AO2 SLP154 T01940178 10206
                 20178 50002 =
2018-08-14 05:52 METAR KDPA 141052Z 00000KT 5SM BR CLR 18/17 A3000 RMK AO2 SLP155 T01830172 =
2018-08-14 04:52 METAR KDPA 140952Z 00000KT 5SM BR CLR 18/18 A3000 RMK AO2 SLP153 T01830178 =
2018-08-14 03:52 METAR KDPA 140852Z 00000KT 4SM BR CLR 19/18 A2999 RMK AO2 SLP151 T01890183 56008
                 =

Support USWX by starting your Amazon purchase here.